Pagina principală
METAR-TAF:

METAR-TAF

Aeroporturi :

Rarotonga, Insulele Cook

Latitudine: 21-12S, longitudine: 159-49W, elevație: 7 m

Observații meteo curente

Raportul a fost făcut în urmă cu 40 de minute, la 01:00 UTC
Vânt 14 kt de la Est
Temperatură 26°C
Umiditate 58%
Presiune 1014 hPa
Vizibilitate de 10 km sau mai mult

METAR: NCRG 190100Z AUTO 08014KT 9999 BKN035/// 26/17 Q1014

Ora: 15:40 (01:40 UTC)

Prognoză

Raportul a fost făcut în urmă cu 2 ore și 29 de minute, la 23:11 UTC
Prognoză valabilă de la 19 ora 00 UTC la 19 ora 24 UTC
Vânt 12 kt de la Est/Nord-est
Vizibilitate de 10 km sau mai mult
Nori împrăștiați la o înălțime de 3500 picior

TAF: NCRG 182311Z 1900/1924 07012KT 9999 SCT035

Observații și prognoze meteo pentru peste 4.000 de aeroporturi (rapoarte METAR și TAF).

Stațiile disponibile sunt reprezentate pe hartă prin puncte galbene și roșii.

Țineți indicatorul mouse-ului pe punctul dorit pentru a vedea denumirea stației.

Apoi, faceți clic pentru a vedea observațiile și prognozele meteorologice.

Pentru a schimba harta: Pentru mărire, faceți clic pe butoanele verzi cu cruce neagră; pentru micșorare, pe butonul verde cu o liniuță; pentru hărți învecinate, pe săgețile verzi.


METAR-TAF: